Time;durP1;ratioP1;P1;durP2;ratioP2;P2;SDS_P1;SDS_P2;PMS_P1;PMS_P2;Temp;Humidity;BMP_temperature;BMP_pressure;BME280_temperature;BME280_humidity;BME280_pressure;Samples;Min_cycle;Max_cycle;Signal;HPM_P1;HPM_P2
2021/08/04 00:00:25;;;;;;;6.13;2.70;;;12.90;99.90;;;;;;5054261;28;20063;-90
2021/08/04 00:02:52;;;;;;;5.22;2.75;;;12.80;99.90;;;;;;5054280;28;20053;-90
2021/08/04 00:05:20;;;;;;;3.15;2.50;;;12.80;99.90;;;;;;5054015;28;20057;-91
2021/08/04 00:07:47;;;;;;;4.22;2.83;;;12.80;99.90;;;;;;5054348;28;20053;-90
2021/08/04 00:10:14;;;;;;;2.70;2.50;;;12.70;99.90;;;;;;5053999;28;20045;-91
2021/08/04 00:12:41;;;;;;;4.22;2.97;;;12.60;99.90;;;;;;5053943;28;20044;-90
2021/08/04 00:15:09;;;;;;;8.10;3.55;;;12.50;99.90;;;;;;5057423;28;20140;-90
2021/08/04 00:17:36;;;;;;;6.78;3.10;;;12.50;99.90;;;;;;5054010;28;20438;-91
2021/08/04 00:20:04;;;;;;;4.38;3.05;;;12.50;99.90;;;;;;5053451;28;20497;-90
2021/08/04 00:22:32;;;;;;;3.50;3.13;;;12.50;99.90;;;;;;5054587;28;20055;-90
2021/08/04 00:24:59;;;;;;;9.38;3.83;;;12.60;99.90;;;;;;5053838;28;20507;-91
2021/08/04 00:27:27;;;;;;;3.75;2.60;;;12.60;99.90;;;;;;5053744;28;20584;-90
2021/08/04 00:29:55;;;;;;;3.15;2.75;;;12.70;99.90;;;;;;5053749;28;20071;-91
2021/08/04 00:32:23;;;;;;;6.03;3.22;;;12.60;99.90;;;;;;5053478;28;20135;-91
2021/08/04 00:34:50;;;;;;;4.25;3.40;;;12.70;99.90;;;;;;5053852;28;20048;-90
2021/08/04 00:37:18;;;;;;;3.72;3.50;;;12.70;99.90;;;;;;5053620;28;20140;-90
2021/08/04 00:39:44;;;;;;;4.30;3.17;;;12.80;99.90;;;;;;5053472;28;20072;-90
2021/08/04 00:42:11;;;;;;;5.05;2.90;;;12.80;99.90;;;;;;5059606;28;20031;-90
2021/08/04 00:44:38;;;;;;;5.78;3.00;;;12.80;99.90;;;;;;5064827;28;20527;-90
2021/08/04 00:47:05;;;;;;;5.53;2.75;;;12.80;99.90;;;;;;5053288;28;20067;-91
2021/08/04 00:49:33;;;;;;;3.05;2.85;;;12.90;99.90;;;;;;5052987;28;20119;-90
2021/08/04 00:52:00;;;;;;;4.35;3.20;;;12.90;99.90;;;;;;5053113;28;20083;-90
2021/08/04 00:54:27;;;;;;;2.83;2.63;;;12.90;99.90;;;;;;5053009;28;20067;-90
2021/08/04 00:56:53;;;;;;;2.92;2.80;;;12.90;99.90;;;;;;5053224;28;20045;-90
2021/08/04 00:59:20;;;;;;;5.80;3.22;;;13.00;99.90;;;;;;5053033;28;20057;-90
2021/08/04 01:01:51;;;;;;;3.30;3.00;;;13.10;99.90;;;;;;5053443;28;20049;-90
2021/08/04 01:04:22;;;;;;;6.05;2.80;;;13.10;99.90;;;;;;5052744;28;20041;-91
2021/08/04 01:07:08;;;;;;;3.97;2.70;;;13.20;99.90;;;;;;5052904;28;20052;-90
2021/08/04 01:09:44;;;;;;;6.82;3.13;;;13.20;99.90;;;;;;5052870;28;20055;-90
2021/08/04 01:12:17;;;;;;;3.80;3.17;;;13.10;99.90;;;;;;5052601;28;20136;-90
2021/08/04 01:14:46;;;;;;;3.30;3.00;;;13.20;99.90;;;;;;5052752;28;20053;-90
2021/08/04 01:17:16;;;;;;;3.05;2.60;;;13.20;99.90;;;;;;5052440;28;20080;-90
2021/08/04 01:20:08;;;;;;;6.50;3.00;;;13.20;99.90;;;;;;5052578;28;20061;-90
2021/08/04 01:22:50;;;;;;;6.85;2.88;;;13.20;99.90;;;;;;5052803;28;20390;-90
2021/08/04 01:25:20;;;;;;;3.88;2.33;;;13.20;99.90;;;;;;5051844;28;20566;-90
2021/08/04 01:28:14;;;;;;;3.75;3.13;;;13.20;99.90;;;;;;5052572;28;20049;-90
2021/08/04 01:30:43;;;;;;;5.10;2.45;;;13.20;99.90;;;;;;5052598;28;20049;-90
2021/08/04 01:33:12;;;;;;;3.03;1.98;;;13.20;99.90;;;;;;5052660;28;20079;-90
2021/08/04 01:35:40;;;;;;;3.15;2.33;;;13.30;99.90;;;;;;5052218;28;20045;-91
2021/08/04 01:38:08;;;;;;;2.58;2.35;;;13.30;99.90;;;;;;5052241;28;20044;-90
2021/08/04 01:40:35;;;;;;;4.78;2.35;;;13.30;99.90;;;;;;5052157;28;20084;-90
2021/08/04 01:43:03;;;;;;;5.95;2.60;;;13.30;99.90;;;;;;5052285;28;20405;-91
2021/08/04 01:45:30;;;;;;;4.55;2.38;;;13.40;99.90;;;;;;5052140;28;20049;-90
2021/08/04 01:47:58;;;;;;;6.55;2.40;;;13.30;99.90;;;;;;5051749;28;20500;-90
2021/08/04 01:50:25;;;;;;;4.47;2.67;;;13.30;99.90;;;;;;5052976;28;20049;-90
2021/08/04 01:52:53;;;;;;;3.42;2.45;;;13.30;99.90;;;;;;5052460;28;20045;-90
2021/08/04 01:55:19;;;;;;;2.78;2.58;;;13.30;99.90;;;;;;5053261;28;20055;-90
2021/08/04 01:57:46;;;;;;;4.63;2.40;;;13.40;99.90;;;;;;5052633;28;20080;-90
2021/08/04 02:00:13;;;;;;;3.90;2.08;;;13.40;99.90;;;;;;5053836;28;20489;-90
2021/08/04 02:02:40;;;;;;;7.47;3.20;;;13.40;99.90;;;;;;5064222;28;20136;-91
2021/08/04 02:05:08;;;;;;;3.55;2.33;;;13.30;99.90;;;;;;5060681;28;20051;-91
2021/08/04 02:07:50;;;;;;;5.07;2.63;;;13.30;99.90;;;;;;5053487;28;20041;-89
2021/08/04 02:10:28;;;;;;;4.15;2.38;;;13.30;99.90;;;;;;5053062;28;20133;-89
2021/08/04 02:13:15;;;;;;;2.10;2.00;;;13.30;99.90;;;;;;5053621;28;20572;-91
2021/08/04 02:15:44;;;;;;;2.10;2.00;;;13.30;99.90;;;;;;5055007;28;20121;-89
2021/08/04 02:18:15;;;;;;;3.15;2.28;;;13.30;99.90;;;;;;5053531;28;20049;-92
2021/08/04 02:20:45;;;;;;;3.63;2.42;;;13.30;99.90;;;;;;5053268;28;20136;-89
2021/08/04 02:23:25;;;;;;;8.25;3.10;;;13.30;99.90;;;;;;5051996;28;20429;-91
2021/08/04 02:25:59;;;;;;;2.22;2.10;;;13.30;99.90;;;;;;5051829;28;20412;-91
2021/08/04 02:28:30;;;;;;;6.07;2.75;;;13.30;99.90;;;;;;5051885;28;20528;-91
2021/08/04 02:31:01;;;;;;;3.97;2.20;;;13.30;99.90;;;;;;5052306;28;20049;-89
2021/08/04 02:33:29;;;;;;;2.22;2.13;;;13.20;99.90;;;;;;5051950;28;20045;-89
2021/08/04 02:35:56;;;;;;;3.05;2.80;;;13.30;99.90;;;;;;5052938;28;20103;-89
2021/08/04 02:38:23;;;;;;;2.92;2.22;;;13.20;99.90;;;;;;5055454;28;20051;-90
2021/08/04 02:40:51;;;;;;;6.53;2.60;;;13.30;99.90;;;;;;5055704;28;20060;-89
2021/08/04 02:43:20;;;;;;;3.55;2.70;;;13.30;99.90;;;;;;5055403;28;20051;-89
2021/08/04 02:45:47;;;;;;;5.18;2.53;;;13.20;99.90;;;;;;5056556;28;20045;-89
2021/08/04 02:48:15;;;;;;;3.03;2.30;;;13.20;99.90;;;;;;5055461;28;20060;-89
2021/08/04 02:50:51;;;;;;;3.90;2.85;;;13.20;99.90;;;;;;5055501;28;20489;-91
2021/08/04 02:53:19;;;;;;;4.40;2.63;;;13.20;99.90;;;;;;5055411;28;20067;-89
2021/08/04 02:55:50;;;;;;;4.10;2.50;;;13.30;99.90;;;;;;5055316;28;20051;-89
2021/08/04 02:58:17;;;;;;;2.90;2.38;;;13.30;99.90;;;;;;5055235;28;20128;-89
2021/08/04 03:00:45;;;;;;;5.38;2.70;;;13.40;99.90;;;;;;5055398;28;20041;-89
2021/08/04 03:03:12;;;;;;;2.88;2.20;;;13.40;99.90;;;;;;5055306;28;20059;-91
2021/08/04 03:05:39;;;;;;;4.80;2.22;;;13.40;99.90;;;;;;5055080;28;20056;-91
2021/08/04 03:08:05;;;;;;;4.18;2.78;;;13.40;99.90;;;;;;5055802;28;20059;-90
2021/08/04 03:10:32;;;;;;;7.55;2.75;;;13.40;99.90;;;;;;5055306;28;20412;-89
2021/08/04 03:12:59;;;;;;;2.45;2.05;;;13.30;99.90;;;;;;5055281;28;20048;-90
2021/08/04 03:15:26;;;;;;;2.60;1.98;;;13.30;99.90;;;;;;5055945;28;20346;-91
2021/08/04 03:17:53;;;;;;;4.35;2.75;;;13.30;99.90;;;;;;5055843;28;20489;-90
2021/08/04 03:20:20;;;;;;;6.57;2.53;;;13.30;99.90;;;;;;5061724;28;20428;-89
2021/08/04 03:22:48;;;;;;;2.58;2.30;;;13.30;99.90;;;;;;5060025;28;20192;-90
2021/08/04 03:25:18;;;;;;;2.95;2.63;;;13.30;99.90;;;;;;5054909;28;20080;-89
2021/08/04 03:27:45;;;;;;;4.53;3.00;;;13.40;99.90;;;;;;5055283;28;20132;-89
2021/08/04 03:30:13;;;;;;;4.68;3.40;;;13.40;99.90;;;;;;5054834;28;20412;-89
2021/08/04 03:32:40;;;;;;;4.50;3.58;;;13.40;99.90;;;;;;5054555;28;20049;-91
2021/08/04 03:35:09;;;;;;;5.35;3.75;;;13.40;99.90;;;;;;5054898;28;20060;-89
2021/08/04 03:37:35;;;;;;;3.10;2.90;;;13.40;99.90;;;;;;5054780;28;20416;-89
2021/08/04 03:40:04;;;;;;;2.58;2.40;;;13.50;99.90;;;;;;5054497;28;20142;-89
2021/08/04 03:42:31;;;;;;;3.38;2.83;;;13.50;99.90;;;;;;5054405;28;20048;-89
2021/08/04 03:44:57;;;;;;;2.80;2.45;;;13.50;99.90;;;;;;5054131;28;20049;-89
2021/08/04 03:47:24;;;;;;;3.30;2.42;;;13.60;99.90;;;;;;5054035;28;20049;-89
2021/08/04 03:49:52;;;;;;;4.38;2.97;;;13.60;99.90;;;;;;5054254;28;20049;-89
2021/08/04 03:52:19;;;;;;;2.83;2.63;;;13.50;99.90;;;;;;5054495;28;20045;-89
2021/08/04 03:54:45;;;;;;;3.95;2.55;;;13.60;99.90;;;;;;5054583;28;20128;-89
2021/08/04 03:57:12;;;;;;;2.70;2.50;;;13.60;99.90;;;;;;5054313;28;20136;-90
2021/08/04 03:59:39;;;;;;;2.78;2.22;;;13.60;99.90;;;;;;5054123;28;20045;-90
2021/08/04 04:02:06;;;;;;;3.25;2.30;;;13.60;99.90;;;;;;5054030;28;20075;-90
2021/08/04 04:04:33;;;;;;;4.93;3.10;;;13.70;99.90;;;;;;5053803;28;20053;-90
2021/08/04 04:07:00;;;;;;;2.92;2.60;;;13.60;99.90;;;;;;5054047;28;20048;-90
2021/08/04 04:09:28;;;;;;;7.25;2.65;;;13.60;99.90;;;;;;5054380;28;20052;-90
2021/08/04 04:11:54;;;;;;;2.53;1.80;;;13.60;99.90;;;;;;5054022;28;20048;-89
2021/08/04 04:14:21;;;;;;;3.85;2.20;;;13.70;99.90;;;;;;5053986;28;20489;-90
2021/08/04 04:16:48;;;;;;;4.47;2.30;;;13.70;99.90;;;;;;5053983;28;20076;-88
2021/08/04 04:19:15;;;;;;;4.07;2.33;;;13.70;99.90;;;;;;5053521;28;20149;-90
2021/08/04 04:21:41;;;;;;;2.80;2.60;;;13.70;99.90;;;;;;5053457;28;20527;-91
2021/08/04 04:24:08;;;;;;;5.03;2.35;;;13.70;99.90;;;;;;5053320;28;20139;-90
2021/08/04 04:26:35;;;;;;;2.60;2.40;;;13.70;99.90;;;;;;5053808;28;20400;-89
2021/08/04 04:29:02;;;;;;;5.68;2.58;;;13.70;99.90;;;;;;5053589;28;20056;-89
2021/08/04 04:31:30;;;;;;;2.60;2.40;;;13.80;99.90;;;;;;5055474;28;20107;-91
2021/08/04 04:33:57;;;;;;;3.40;2.30;;;13.80;99.90;;;;;;5059308;28;20052;-89
2021/08/04 04:36:24;;;;;;;2.63;2.05;;;13.80;99.90;;;;;;5059435;28;20045;-89
2021/08/04 04:38:51;;;;;;;9.25;2.63;;;13.90;99.90;;;;;;5063283;28;20148;-91
2021/08/04 04:41:17;;;;;;;8.55;3.05;;;13.90;99.90;;;;;;5059126;28;20172;-90
2021/08/04 04:43:44;;;;;;;5.13;2.70;;;13.90;99.90;;;;;;5053164;28;20148;-89
2021/08/04 04:46:11;;;;;;;6.82;2.45;;;13.90;99.90;;;;;;5052834;28;20059;-91
2021/08/04 04:48:38;;;;;;;3.53;2.45;;;14.00;99.90;;;;;;5053451;28;20069;-90
2021/08/04 04:51:04;;;;;;;5.47;2.28;;;14.10;99.90;;;;;;5052980;28;20128;-89
2021/08/04 04:53:31;;;;;;;10.88;2.45;;;14.20;99.90;;;;;;5052928;28;20139;-89
2021/08/04 04:55:58;;;;;;;3.55;2.45;;;14.20;99.90;;;;;;5052649;28;20067;-89
2021/08/04 04:58:25;;;;;;;5.30;2.33;;;14.40;99.90;;;;;;5052845;28;20049;-89
2021/08/04 05:00:51;;;;;;;5.38;2.70;;;14.40;99.90;;;;;;5052340;28;20044;-89
2021/08/04 05:03:18;;;;;;;6.00;2.65;;;14.60;99.90;;;;;;5053121;28;20049;-89
2021/08/04 05:05:45;;;;;;;4.43;3.70;;;14.60;99.90;;;;;;5053052;28;20048;-89
2021/08/04 05:08:12;;;;;;;3.58;3.22;;;14.60;99.90;;;;;;5052751;28;20059;-89
2021/08/04 05:10:39;;;;;;;3.53;3.30;;;14.70;99.90;;;;;;5052686;28;20132;-89
2021/08/04 05:13:05;;;;;;;6.50;2.85;;;14.70;99.90;;;;;;5053144;28;20137;-89
2021/08/04 05:15:33;;;;;;;2.97;2.65;;;14.70;99.90;;;;;;5052785;28;20057;-88
2021/08/04 05:18:00;;;;;;;3.50;2.35;;;14.70;99.90;;;;;;5052542;28;20063;-88
2021/08/04 05:20:27;;;;;;;3.88;2.50;;;14.60;99.90;;;;;;5053050;28;20132;-89
2021/08/04 05:22:54;;;;;;;2.58;2.40;;;14.50;99.90;;;;;;5052797;28;20040;-89
2021/08/04 05:25:21;;;;;;;2.35;2.15;;;14.60;99.90;;;;;;5052506;28;20076;-89
2021/08/04 05:27:48;;;;;;;7.43;2.92;;;14.80;99.90;;;;;;5052637;28;20045;-89
2021/08/04 05:30:15;;;;;;;8.73;2.72;;;14.90;99.90;;;;;;5052337;28;20515;-88
2021/08/04 05:32:42;;;;;;;2.45;1.90;;;15.20;99.90;;;;;;5052658;28;20059;-89
2021/08/04 05:35:10;;;;;;;3.40;2.20;;;15.40;99.90;;;;;;5052292;28;20106;-88
2021/08/04 05:37:38;;;;;;;4.32;2.22;;;15.60;99.90;;;;;;5052630;28;20044;-89
2021/08/04 05:40:05;;;;;;;3.88;1.92;;;15.70;99.90;;;;;;5052230;28;20564;-89
2021/08/04 05:42:32;;;;;;;4.07;1.92;;;15.80;99.90;;;;;;5052493;28;20052;-88
2021/08/04 05:44:58;;;;;;;3.22;1.85;;;16.00;99.90;;;;;;5051790;28;20049;-89
2021/08/04 05:47:25;;;;;;;2.67;2.03;;;16.10;99.90;;;;;;5052371;28;20132;-88
2021/08/04 05:49:52;;;;;;;3.38;1.95;;;16.30;99.90;;;;;;5052276;28;20053;-89
2021/08/04 05:52:18;;;;;;;2.08;1.77;;;16.60;99.90;;;;;;5052018;28;20059;-88
2021/08/04 05:54:45;;;;;;;9.48;2.05;;;16.80;99.90;;;;;;5052806;28;20135;-90
2021/08/04 05:57:12;;;;;;;1.80;1.70;;;17.00;99.90;;;;;;5056639;28;20049;-88
2021/08/04 05:59:38;;;;;;;5.15;1.55;;;17.50;99.90;;;;;;5061364;28;20076;-88
2021/08/04 06:02:06;;;;;;;4.95;1.42;;;17.80;99.90;;;;;;5053091;28;20072;-88
2021/08/04 06:04:33;;;;;;;3.70;1.45;;;18.60;99.90;;;;;;5052118;28;20144;-88
2021/08/04 06:07:00;;;;;;;3.25;0.95;;;19.50;99.90;;;;;;5051892;28;20131;-88
2021/08/04 06:09:26;;;;;;;7.90;1.30;;;20.40;99.90;;;;;;5052302;28;20049;-88
2021/08/04 06:11:53;;;;;;;3.13;1.20;;;21.20;99.90;;;;;;5055134;28;20051;-88
2021/08/04 06:14:20;;;;;;;4.60;1.45;;;21.50;99.90;;;;;;5056355;28;20107;-88
2021/08/04 06:16:46;;;;;;;2.22;1.20;;;21.40;99.90;;;;;;5056205;28;20045;-88
2021/08/04 06:19:13;;;;;;;3.00;1.35;;;20.90;99.90;;;;;;5055896;28;20091;-89
2021/08/04 06:21:40;;;;;;;1.92;1.30;;;20.60;99.90;;;;;;5056106;28;20052;-88
2021/08/04 06:24:07;;;;;;;3.30;1.45;;;20.20;99.90;;;;;;5055880;28;20055;-88
2021/08/04 06:26:34;;;;;;;3.80;1.42;;;20.20;99.90;;;;;;5056095;28;20576;-89
2021/08/04 06:29:01;;;;;;;4.55;1.75;;;20.30;99.90;;;;;;5056066;28;20132;-86
2021/08/04 06:31:27;;;;;;;4.38;1.48;;;20.20;99.90;;;;;;5056009;28;20041;-89
2021/08/04 06:33:54;;;;;;;1.50;1.10;;;20.20;99.90;;;;;;5055735;28;20048;-89
2021/08/04 06:36:21;;;;;;;4.43;1.20;;;20.30;99.90;;;;;;5056545;28;20048;-88
2021/08/04 06:38:48;;;;;;;2.88;0.93;;;20.50;99.90;;;;;;5055584;28;20049;-88
2021/08/04 06:41:15;;;;;;;4.22;1.17;;;20.60;99.90;;;;;;5055511;28;20135;-88
2021/08/04 06:43:42;;;;;;;4.15;1.30;;;20.60;99.90;;;;;;5055636;28;20055;-88
2021/08/04 06:46:11;;;;;;;1.83;1.40;;;20.60;99.90;;;;;;5055145;28;20143;-88
2021/08/04 06:48:42;;;;;;;1.35;1.02;;;20.50;99.90;;;;;;5055774;28;20044;-88
2021/08/04 06:51:08;;;;;;;0.82;0.80;;;20.40;99.90;;;;;;5056529;28;20044;-88
2021/08/04 06:53:35;;;;;;;2.42;0.90;;;20.60;99.90;;;;;;5055481;28;20053;-88
2021/08/04 06:56:02;;;;;;;1.23;0.88;;;21.00;99.90;;;;;;5056086;28;20135;-88
2021/08/04 06:58:29;;;;;;;3.25;1.20;;;21.20;99.90;;;;;;5057829;28;20047;-88
2021/08/04 07:00:56;;;;;;;0.77;0.77;;;21.40;99.90;;;;;;5055253;28;20108;-88
2021/08/04 07:03:23;;;;;;;2.33;0.80;;;22.00;99.90;;;;;;5054882;28;20144;-87
2021/08/04 07:05:50;;;;;;;1.10;0.65;;;22.10;99.90;;;;;;5054631;28;20429;-88
2021/08/04 07:08:19;;;;;;;0.93;0.70;;;22.60;99.90;;;;;;5055647;28;20048;-88
2021/08/04 07:10:53;;;;;;;0.50;0.50;;;22.90;99.90;;;;;;5055066;28;20048;-88
2021/08/04 07:13:22;;;;;;;0.95;0.70;;;23.50;99.90;;;;;;5054993;28;20075;-88
2021/08/04 07:15:50;;;;;;;2.60;0.70;;;23.90;99.90;;;;;;5058134;28;20476;-89
2021/08/04 07:18:17;;;;;;;0.75;0.75;;;24.20;99.90;;;;;;5063180;28;20085;-88
2021/08/04 07:20:44;;;;;;;1.40;0.73;;;23.90;99.90;;;;;;5055144;28;20045;-88
2021/08/04 07:23:12;;;;;;;1.50;0.68;;;23.90;99.90;;;;;;5053879;28;20060;-88
2021/08/04 07:25:39;;;;;;;1.35;0.80;;;23.80;99.90;;;;;;5054327;28;20057;-88
2021/08/04 07:28:06;;;;;;;1.00;0.80;;;23.40;99.90;;;;;;5054354;28;20401;-88
2021/08/04 07:30:33;;;;;;;0.85;0.85;;;23.60;99.90;;;;;;5055450;28;20056;-88
2021/08/04 07:33:00;;;;;;;1.08;0.77;;;23.90;99.90;;;;;;5055436;28;20049;-88
2021/08/04 07:35:27;;;;;;;0.73;0.73;;;24.20;99.90;;;;;;5054437;28;20059;-88
2021/08/04 07:37:54;;;;;;;0.88;0.60;;;24.30;99.90;;;;;;5054579;28;20049;-88
2021/08/04 07:40:21;;;;;;;0.93;0.93;;;24.20;99.90;;;;;;5056695;28;20052;-88
2021/08/04 07:42:49;;;;;;;2.72;0.77;;;24.30;99.90;;;;;;5056852;28;20412;-88
2021/08/04 07:45:18;;;;;;;2.22;0.77;;;24.70;99.90;;;;;;5053286;28;20045;-88
2021/08/04 07:47:45;;;;;;;2.88;0.70;;;25.00;99.90;;;;;;5054093;28;20131;-88
2021/08/04 07:50:13;;;;;;;2.53;0.70;;;25.20;99.90;;;;;;5054082;28;20053;-88
2021/08/04 07:52:40;;;;;;;1.90;0.70;;;25.50;99.90;;;;;;5054443;28;20053;-88
2021/08/04 07:55:08;;;;;;;1.02;0.80;;;25.70;99.90;;;;;;5054070;28;20055;-89
2021/08/04 07:57:35;;;;;;;0.65;0.60;;;25.70;99.90;;;;;;5054332;28;20075;-88
2021/08/04 08:00:03;;;;;;;0.90;0.90;;;25.70;99.90;;;;;;5054081;28;20045;-88
2021/08/04 08:02:29;;;;;;;0.50;0.50;;;25.60;99.90;;;;;;5054187;28;20059;-89
2021/08/04 08:04:57;;;;;;;1.55;0.68;;;25.00;99.90;;;;;;5053860;28;20045;-88
2021/08/04 08:07:24;;;;;;;1.48;0.70;;;24.50;99.90;;;;;;5053862;28;20053;-89
2021/08/04 08:09:51;;;;;;;0.90;0.90;;;24.00;99.90;;;;;;5054041;28;20047;-89
2021/08/04 08:12:18;;;;;;;1.00;0.80;;;23.20;99.90;;;;;;5053855;28;20421;-89
2021/08/04 08:14:45;;;;;;;3.45;1.10;;;23.00;99.90;;;;;;5054161;28;20545;-88
2021/08/04 08:17:12;;;;;;;1.30;1.00;;;22.50;99.90;;;;;;5054055;28;20053;-88
2021/08/04 08:19:39;;;;;;;1.23;1.00;;;22.10;99.90;;;;;;5053710;28;20049;-88
2021/08/04 08:22:06;;;;;;;1.48;0.88;;;22.10;99.90;;;;;;5053390;28;20485;-88
2021/08/04 08:24:33;;;;;;;1.13;1.00;;;22.40;99.90;;;;;;5053397;28;20053;-88
2021/08/04 08:27:00;;;;;;;1.08;1.00;;;23.00;99.90;;;;;;5063182;28;20048;-88
2021/08/04 08:29:27;;;;;;;0.70;0.70;;;23.30;99.90;;;;;;5072995;28;20048;-88
2021/08/04 08:31:53;;;;;;;0.93;0.60;;;23.90;99.90;;;;;;5073309;28;20480;-88
2021/08/04 08:34:20;;;;;;;0.90;0.90;;;24.40;99.90;;;;;;5075370;28;20131;-89
2021/08/04 08:36:47;;;;;;;1.67;0.70;;;23.70;99.90;;;;;;5083802;28;20135;-88
2021/08/04 08:39:14;;;;;;;2.78;0.68;;;23.10;99.90;;;;;;5074480;28;20051;-90
2021/08/04 08:41:44;;;;;;;1.02;0.73;;;22.70;99.90;;;;;;5073288;28;20135;-89
2021/08/04 08:44:11;;;;;;;1.17;0.90;;;22.50;99.90;;;;;;5072754;28;20140;-88
2021/08/04 08:46:38;;;;;;;1.80;0.80;;;22.40;99.90;;;;;;5072573;28;20064;-89
2021/08/04 08:49:06;;;;;;;2.03;0.90;;;22.30;99.90;;;;;;5073063;28;20044;-88
2021/08/04 08:51:33;;;;;;;2.00;1.10;;;22.40;99.90;;;;;;5072980;28;20060;-88
2021/08/04 08:54:00;;;;;;;3.00;0.77;;;22.70;99.90;;;;;;5072815;28;20045;-88
2021/08/04 08:56:27;;;;;;;0.90;0.90;;;22.80;99.90;;;;;;5072052;28;20400;-89
2021/08/04 08:58:55;;;;;;;0.82;0.82;;;23.30;99.90;;;;;;5073217;28;20071;-91
2021/08/04 09:01:37;;;;;;;0.73;0.73;;;23.50;99.90;;;;;;5073154;28;20078;-89
2021/08/04 09:04:09;;;;;;;0.70;0.70;;;23.40;99.90;;;;;;5072743;28;20080;-88
2021/08/04 09:06:47;;;;;;;0.70;0.70;;;23.40;99.90;;;;;;5073065;28;20087;-89
2021/08/04 09:09:25;;;;;;;0.90;0.90;;;23.30;99.90;;;;;;5073159;28;20048;-88
2021/08/04 09:11:55;;;;;;;2.10;0.80;;;22.70;99.90;;;;;;5073052;28;20049;-88
2021/08/04 09:14:33;;;;;;;0.75;0.75;;;22.20;99.90;;;;;;5072741;28;20049;-89
2021/08/04 09:17:09;;;;;;;1.05;0.98;;;21.90;99.90;;;;;;5073900;28;20118;-88
2021/08/04 09:19:38;;;;;;;0.70;0.70;;;21.80;99.90;;;;;;5076948;28;20052;-90
2021/08/04 09:22:12;;;;;;;0.80;0.80;;;21.50;99.90;;;;;;5073972;28;20506;-90
2021/08/04 09:24:57;;;;;;;;;;;21.70;99.90;;;;;;5073096;28;20059;-90
2021/08/04 09:27:40;;;;;;;0.90;0.90;;;21.70;99.90;;;;;;5072738;28;19920;-89
2021/08/04 09:30:11;;;;;;;1.10;1.10;;;21.70;99.90;;;;;;5072559;28;20504;-89
2021/08/04 09:32:38;;;;;;;2.45;1.10;;;21.50;99.90;;;;;;5072736;28;20056;-89
2021/08/04 09:35:11;;;;;;;1.95;0.90;;;21.30;99.90;;;;;;5072354;28;20044;-89
2021/08/04 09:37:38;;;;;;;1.02;1.02;;;21.30;99.90;;;;;;5072470;28;20475;-89
2021/08/04 09:40:08;;;;;;;1.02;0.93;;;21.40;99.90;;;;;;5072489;28;20550;-89
2021/08/04 09:42:48;;;;;;;2.10;1.08;;;21.40;99.90;;;;;;5072593;28;20047;-90
2021/08/04 09:45:17;;;;;;;1.00;0.90;;;21.60;99.90;;;;;;5071748;28;20059;-89
2021/08/04 09:48:03;;;;;;;0.90;0.90;;;21.60;99.90;;;;;;5072406;28;20135;-89
2021/08/04 09:50:54;;;;;;;1.10;1.10;;;21.50;99.90;;;;;;5072772;28;20056;-90
2021/08/04 09:53:33;;;;;;;1.05;1.00;;;22.00;99.90;;;;;;5069675;28;20094;-89
2021/08/04 09:56:08;;;;;;;1.88;1.35;;;24.60;99.90;;;;;;5083757;28;20524;-90
2021/08/04 09:58:38;;;;;;;0.70;0.70;;;29.20;96.90;;;;;;5075238;28;20135;-91
2021/08/04 10:01:05;;;;;;;0.60;0.60;;;30.80;86.00;;;;;;5072406;28;20412;-93
2021/08/04 10:03:33;;;;;;;2.45;0.98;;;32.90;75.60;;;;;;5072426;28;20052;-89
2021/08/04 10:06:01;;;;;;;0.60;0.60;;;33.70;69.70;;;;;;5071769;28;20049;-90
2021/08/04 10:08:44;;;;;;;0.50;0.50;;;36.10;65.20;;;;;;5072096;28;20137;-91
2021/08/04 10:11:12;;;;;;;0.55;0.55;;;38.00;58.00;;;;;;5072146;28;20120;-90
2021/08/04 10:13:39;;;;;;;0.60;0.60;;;38.70;56.40;;;;;;5072359;28;20048;-89
2021/08/04 10:16:06;;;;;;;2.15;0.60;;;38.60;54.00;;;;;;5071889;28;20048;-90
2021/08/04 10:18:34;;;;;;;0.55;0.55;;;37.10;53.40;;;;;;5071641;28;20062;-89
2021/08/04 10:21:04;;;;;;;0.95;0.30;;;35.60;54.80;;;;;;5071660;28;20052;-90
2021/08/04 10:23:32;;;;;;;0.85;0.40;;;34.30;56.20;;;;;;5072243;28;20585;-90
2021/08/04 10:26:00;;;;;;;0.60;0.60;;;32.90;57.70;;;;;;5072024;28;20080;-90
2021/08/04 10:28:32;;;;;;;0.73;0.60;;;32.40;60.20;;;;;;5072191;28;20411;-89
2021/08/04 10:30:58;;;;;;;0.50;0.50;;;31.30;62.50;;;;;;5071994;28;20052;-89
2021/08/04 10:33:25;;;;;;;1.20;0.65;;;30.30;64.20;;;;;;5071835;28;20044;-89
2021/08/04 10:35:57;;;;;;;1.52;0.70;;;29.10;66.80;;;;;;5071613;28;20048;-87
2021/08/04 10:38:26;;;;;;;0.93;0.55;;;28.10;69.30;;;;;;5071930;28;20052;-89
2021/08/04 10:41:08;;;;;;;0.60;0.60;;;27.10;72.40;;;;;;5072729;28;20048;-89
2021/08/04 10:43:55;;;;;;;0.50;0.50;;;26.20;75.70;;;;;;5071962;28;20048;-89
2021/08/04 10:46:28;;;;;;;0.47;0.47;;;25.60;78.80;;;;;;5071465;28;20052;-88
2021/08/04 10:49:17;;;;;;;0.43;0.40;;;24.80;81.70;;;;;;5071657;28;20094;-89
2021/08/04 10:52:05;;;;;;;0.60;0.60;;;24.50;85.40;;;;;;5072543;28;20060;-88
2021/08/04 10:54:32;;;;;;;2.05;0.65;;;24.20;87.40;;;;;;5071536;28;20110;-88
2021/08/04 10:57:02;;;;;;;0.50;0.50;;;23.80;93.10;;;;;;5071798;28;20052;-88
2021/08/04 10:59:30;;;;;;;0.50;0.50;;;23.80;95.20;;;;;;5074486;28;20049;-89
2021/08/04 11:02:03;;;;;;;1.08;0.70;;;23.50;95.90;;;;;;5075276;28;20048;-88
2021/08/04 11:04:30;;;;;;;0.60;0.60;;;24.10;98.50;;;;;;5075162;28;20071;-88
2021/08/04 11:07:09;;;;;;;0.60;0.60;;;24.60;97.10;;;;;;5075081;28;20079;-88
2021/08/04 11:09:37;;;;;;;0.63;0.60;;;24.90;96.60;;;;;;5075471;28;20136;-89
2021/08/04 11:12:09;;;;;;;1.02;0.80;;;24.50;96.10;;;;;;5076563;28;20056;-88
2021/08/04 11:14:44;;;;;;;1.10;1.10;;;23.60;97.10;;;;;;5087459;28;20132;-89
2021/08/04 11:17:19;;;;;;;1.00;1.00;;;22.80;99.90;;;;;;5077542;28;20056;-88
2021/08/04 11:22:27;;;;;;;1.10;1.10;;;21.90;99.90;;;;;;5075951;28;20163;-88
2021/08/04 11:25:08;;;;;;;0.80;0.80;;;21.70;99.90;;;;;;5074693;28;20053;-88
2021/08/04 11:27:55;;;;;;;1.98;1.20;;;21.70;99.90;;;;;;5074788;28;20075;-87
2021/08/04 11:30:34;;;;;;;0.82;0.80;;;21.60;99.90;;;;;;5074478;28;20052;-88
2021/08/04 11:33:26;;;;;;;1.15;0.90;;;21.60;99.90;;;;;;5074736;28;20049;-87
2021/08/04 11:36:02;;;;;;;0.73;0.73;;;21.40;99.90;;;;;;5074176;28;20061;-88
2021/08/04 11:38:50;;;;;;;1.05;1.05;;;21.40;99.90;;;;;;5074714;28;20068;-88
2021/08/04 11:41:20;;;;;;;1.17;0.80;;;21.60;99.90;;;;;;5075646;28;20470;-89
2021/08/04 11:43:50;;;;;;;0.90;0.90;;;21.80;99.90;;;;;;5074947;28;20047;-88
2021/08/04 11:46:34;;;;;;;0.90;0.90;;;21.80;99.90;;;;;;5074002;28;20049;-88
2021/08/04 11:49:04;;;;;;;1.85;1.00;;;21.70;99.90;;;;;;5074460;28;20052;-89
2021/08/04 11:51:34;;;;;;;1.10;1.10;;;21.80;99.90;;;;;;5074161;28;20497;-87
2021/08/04 11:54:02;;;;;;;2.22;0.90;;;21.90;99.90;;;;;;5074082;28;20459;-89
2021/08/04 11:56:29;;;;;;;0.93;0.90;;;22.00;99.90;;;;;;5074208;28;20137;-88
2021/08/04 11:59:01;;;;;;;1.40;0.95;;;22.20;99.90;;;;;;5074043;28;20052;-88
2021/08/04 12:01:28;;;;;;;1.13;1.13;;;22.20;99.90;;;;;;5073970;28;20497;-89
2021/08/04 12:04:11;;;;;;;1.45;0.82;;;22.10;99.90;;;;;;5074004;28;20102;-88
2021/08/04 12:06:40;;;;;;;2.58;1.00;;;21.90;99.90;;;;;;5075067;28;20056;-88
2021/08/04 12:09:18;;;;;;;0.70;0.70;;;21.80;99.90;;;;;;5073420;28;20058;-88
2021/08/04 12:11:45;;;;;;;2.20;0.93;;;21.80;99.90;;;;;;5073862;28;20052;-88
2021/08/04 12:14:13;;;;;;;0.93;0.93;;;21.80;99.90;;;;;;5073174;28;20401;-88
2021/08/04 12:16:51;;;;;;;1.27;0.82;;;21.90;99.90;;;;;;5073797;28;20055;-87
2021/08/04 12:19:30;;;;;;;3.35;0.98;;;21.70;99.90;;;;;;5074413;28;20139;-88
2021/08/04 12:21:58;;;;;;;0.80;0.80;;;21.70;99.90;;;;;;5072812;28;20040;-88
2021/08/04 12:24:26;;;;;;;0.88;0.88;;;21.50;99.90;;;;;;5073950;28;20052;-88
2021/08/04 12:26:54;;;;;;;1.30;1.02;;;21.40;99.90;;;;;;5074015;28;20083;-88
2021/08/04 12:29:26;;;;;;;2.05;1.00;;;21.10;99.90;;;;;;5074004;28;20048;-89
2021/08/04 12:32:21;;;;;;;2.75;1.33;;;20.70;99.90;;;;;;5074363;28;20052;-90
2021/08/04 12:34:58;;;;;;;1.55;1.45;;;19.90;99.90;;;;;;5083861;28;20070;-90
2021/08/04 12:37:27;;;;;;;11.77;3.50;;;19.40;99.90;;;;;;5075426;28;20048;-90
2021/08/04 12:40:05;;;;;;;16.67;4.43;;;19.00;99.90;;;;;;5074002;28;20052;-89
2021/08/04 12:42:32;;;;;;;4.88;2.40;;;18.60;99.90;;;;;;5073930;28;20072;-88
2021/08/04 12:45:24;;;;;;;3.28;2.60;;;18.20;99.90;;;;;;5072227;28;20086;-88
2021/08/04 12:47:59;;;;;;;2.85;2.13;;;18.00;99.90;;;;;;5074269;28;20052;-87
2021/08/04 12:50:47;;;;;;;3.75;2.65;;;17.80;99.90;;;;;;5074032;28;20048;-88
2021/08/04 12:53:26;;;;;;;4.07;2.47;;;17.60;99.90;;;;;;5070385;28;20050;-88
2021/08/04 12:56:12;;;;;;;3.67;2.55;;;17.70;99.90;;;;;;5072930;28;20304;-88
2021/08/04 12:59:10;;;;;;;3.42;2.50;;;17.80;99.90;;;;;;5074336;28;20088;-88
2021/08/04 13:01:38;;;;;;;2.85;2.60;;;17.90;99.90;;;;;;5075060;28;20048;-88
2021/08/04 13:04:26;;;;;;;2.25;2.08;;;18.40;99.90;;;;;;5072828;28;20048;-89